Time;durP1;ratioP1;P1;durP2;ratioP2;P2;SDS_P1;SDS_P2;PMS_P1;PMS_P2;Temp;Humidity;BMP_temperature;BMP_pressure;BME280_temperature;BME280_humidity;BME280_pressure;Samples;Min_cycle;Max_cycle;Signal;HPM_P1;HPM_P2
2022/09/06 00:02:29;;;;;;;9.80;5.40;;;;;;;;;;5049232;28;20178;-61
2022/09/06 00:04:56;;;;;;;10.67;5.97;;;;;;;;;;5049224;28;20211;-60
2022/09/06 00:07:23;;;;;;;11.23;6.47;;;;;;;;;;5048932;28;20748;-61
2022/09/06 00:09:49;;;;;;;12.83;6.90;;;;;;;;;;5049267;28;20217;-61
2022/09/06 00:12:16;;;;;;;15.37;6.47;;;;;;;;;;5033697;28;20187;-60
2022/09/06 00:14:43;;;;;;;11.93;6.20;;;;;;;;;;5049295;28;20198;-61
2022/09/06 00:17:09;;;;;;;12.30;6.90;;;;;;;;;;5049189;28;20692;-61
2022/09/06 00:19:36;;;;;;;11.77;6.27;;;;;;;;;;5048833;28;20206;-61
2022/09/06 00:22:03;;;;;;;13.37;6.87;;;;;;;;;;5048825;28;20214;-61
2022/09/06 00:24:30;;;;;;;12.27;6.63;;;;;;;;;;5049578;28;20438;-61
2022/09/06 00:26:56;;;;;;;16.37;7.50;;;;;;;;;;5048704;28;20677;-61
2022/09/06 00:29:23;;;;;;;12.57;6.27;;;;;;;;;;5049176;28;20202;-61
2022/09/06 00:31:50;;;;;;;14.63;6.40;;;;;;;;;;5048656;28;20190;-62
2022/09/06 00:34:16;;;;;;;12.13;6.20;;;;;;;;;;5048831;28;20241;-61
2022/09/06 00:36:43;;;;;;;10.27;6.20;;;;;;;;;;5048820;28;20202;-61
2022/09/06 00:39:10;;;;;;;10.57;6.23;;;;;;;;;;5049096;28;20210;-61
2022/09/06 00:41:37;;;;;;;11.83;5.53;;;;;;;;;;5048604;28;20218;-61
2022/09/06 00:44:04;;;;;;;8.83;5.43;;;;;;;;;;5048224;28;20194;-61
2022/09/06 00:46:31;;;;;;;10.00;5.33;;;;;;;;;;5048607;28;20520;-61
2022/09/06 00:49:00;;;;;;;7.97;4.80;;;;;;;;;;5030865;28;20281;-61
2022/09/06 00:51:27;;;;;;;8.77;5.67;;;;;;;;;;5044343;28;20186;-61
2022/09/06 00:53:54;;;;;;;8.70;5.10;;;;;;;;;;5031016;28;20223;-61
2022/09/06 00:56:21;;;;;;;10.40;5.83;;;;;;;;;;5048487;28;20187;-61
2022/09/06 00:58:47;;;;;;;10.40;5.87;;;;;;;;;;5048061;28;20221;-61
2022/09/06 01:01:14;;;;;;;10.30;5.77;;;;;;;;;;5047311;28;21019;-61
2022/09/06 01:03:41;;;;;;;9.93;5.30;;;;;;;;;;5048643;28;20201;-61
2022/09/06 01:06:14;;;;;;;9.40;5.40;;;;;;;;;;5030440;28;20234;-61
2022/09/06 01:08:59;;;;;;;8.70;5.30;;;;;;;;;;5048459;28;20677;-61
2022/09/06 01:11:30;;;;;;;9.50;5.17;;;;;;;;;;5035337;28;20193;-61
2022/09/06 01:14:13;;;;;;;10.60;4.63;;;;;;;;;;5030602;28;20191;-61
2022/09/06 01:16:49;;;;;;;9.57;5.60;;;;;;;;;;5019059;28;20179;-61
2022/09/06 01:19:34;;;;;;;8.87;5.40;;;;;;;;;;5047982;28;20202;-61
2022/09/06 01:22:12;;;;;;;8.77;5.13;;;;;;;;;;5048237;28;20210;-61
2022/09/06 01:24:48;;;;;;;8.40;5.40;;;;;;;;;;5048180;28;20203;-64
2022/09/06 01:27:34;;;;;;;9.87;5.40;;;;;;;;;;5030908;28;20198;-61
2022/09/06 01:30:10;;;;;;;9.93;5.57;;;;;;;;;;5048373;28;20229;-60
2022/09/06 01:32:36;;;;;;;9.20;5.10;;;;;;;;;;5030059;28;20441;-61
2022/09/06 01:35:11;;;;;;;8.37;5.00;;;;;;;;;;5048110;28;20187;-60
2022/09/06 01:37:38;;;;;;;8.93;5.00;;;;;;;;;;5030032;28;20675;-61
2022/09/06 01:40:05;;;;;;;7.43;4.37;;;;;;;;;;5047808;28;20601;-61
2022/09/06 01:42:32;;;;;;;8.47;4.97;;;;;;;;;;5048325;28;20197;-61
2022/09/06 01:45:00;;;;;;;10.10;5.40;;;;;;;;;;5047961;28;20190;-61
2022/09/06 01:47:47;;;;;;;11.47;5.53;;;;;;;;;;5047817;28;20681;-61
2022/09/06 01:50:32;;;;;;;10.40;5.70;;;;;;;;;;5043544;28;20254;-62
2022/09/06 01:52:59;;;;;;;7.73;4.87;;;;;;;;;;5046314;28;20794;-61
2022/09/06 01:55:40;;;;;;;8.37;5.07;;;;;;;;;;5050181;28;20191;-61
2022/09/06 01:58:26;;;;;;;8.80;5.10;;;;;;;;;;5035722;28;20222;-61
2022/09/06 02:01:04;;;;;;;8.63;5.13;;;;;;;;;;5037958;28;20222;-61
2022/09/06 02:03:33;;;;;;;10.00;5.63;;;;;;;;;;5038713;28;20266;-61
2022/09/06 02:06:04;;;;;;;11.43;6.10;;;;;;;;;;5051680;28;20256;-61
2022/09/06 02:08:32;;;;;;;10.77;6.17;;;;;;;;;;5051382;28;20198;-61
2022/09/06 02:11:00;;;;;;;11.60;6.00;;;;;;;;;;5033874;28;20651;-61
2022/09/06 02:13:46;;;;;;;11.17;5.70;;;;;;;;;;5051288;28;20646;-61
2022/09/06 02:16:14;;;;;;;11.35;7.20;;;;;;;;;;5050532;28;20470;-61
2022/09/06 02:18:41;;;;;;;12.57;6.00;;;;;;;;;;5033985;28;20241;-61
2022/09/06 02:21:07;;;;;;;9.90;6.20;;;;;;;;;;5051268;28;20214;-61
2022/09/06 02:23:35;;;;;;;10.63;6.00;;;;;;;;;;5033718;28;20187;-61
2022/09/06 02:26:04;;;;;;;11.43;5.73;;;;;;;;;;5051336;28;20285;-61
2022/09/06 02:28:31;;;;;;;12.90;6.20;;;;;;;;;;5033390;28;20693;-62
2022/09/06 02:30:58;;;;;;;12.07;6.30;;;;;;;;;;5051315;28;20546;-61
2022/09/06 02:33:27;;;;;;;11.73;6.23;;;;;;;;;;5033408;28;20191;-63
2022/09/06 02:35:54;;;;;;;10.93;5.90;;;;;;;;;;5017203;28;20195;-61
2022/09/06 02:38:21;;;;;;;11.57;6.13;;;;;;;;;;5050961;28;20187;-61
2022/09/06 02:40:48;;;;;;;11.00;6.00;;;;;;;;;;5050701;28;20219;-61
2022/09/06 02:43:15;;;;;;;11.73;5.97;;;;;;;;;;5033182;28;20187;-61
2022/09/06 02:45:42;;;;;;;11.30;5.80;;;;;;;;;;5051207;28;20190;-61
2022/09/06 02:48:08;;;;;;;9.63;5.47;;;;;;;;;;5050970;28;20235;-62
2022/09/06 02:50:35;;;;;;;10.43;6.17;;;;;;;;;;5044144;28;20764;-62
2022/09/06 02:53:09;;;;;;;10.57;6.00;;;;;;;;;;5050893;28;20229;-61
2022/09/06 02:55:36;;;;;;;13.07;6.73;;;;;;;;;;5050569;28;20222;-61
2022/09/06 02:58:03;;;;;;;12.33;6.43;;;;;;;;;;5048429;28;20205;-65
2022/09/06 03:00:29;;;;;;;13.63;6.47;;;;;;;;;;5044568;28;20217;-62
2022/09/06 03:02:56;;;;;;;11.13;6.40;;;;;;;;;;5051079;28;20186;-64
2022/09/06 03:05:23;;;;;;;12.33;6.10;;;;;;;;;;5051001;28;20231;-62
2022/09/06 03:07:50;;;;;;;9.73;5.93;;;;;;;;;;5049779;28;20199;-64
2022/09/06 03:10:17;;;;;;;12.67;6.23;;;;;;;;;;5039281;28;20237;-62
2022/09/06 03:12:44;;;;;;;10.50;5.90;;;;;;;;;;5051271;28;20187;-63
2022/09/06 03:15:11;;;;;;;10.27;5.70;;;;;;;;;;5051166;28;20195;-62
2022/09/06 03:17:38;;;;;;;10.67;6.00;;;;;;;;;;5051018;28;20183;-62
2022/09/06 03:20:05;;;;;;;10.27;5.33;;;;;;;;;;5050740;28;20284;-61
2022/09/06 03:22:32;;;;;;;7.60;4.87;;;;;;;;;;5051032;28;20191;-63
2022/09/06 03:24:58;;;;;;;10.77;5.27;;;;;;;;;;5050574;28;20187;-61
2022/09/06 03:27:25;;;;;;;7.73;4.57;;;;;;;;;;5050903;28;20256;-61
2022/09/06 03:29:52;;;;;;;9.23;5.20;;;;;;;;;;5050827;28;20191;-61
2022/09/06 03:32:18;;;;;;;8.60;5.17;;;;;;;;;;5050711;28;20198;-62
2022/09/06 03:34:46;;;;;;;9.37;5.17;;;;;;;;;;5050569;28;20271;-63
2022/09/06 03:37:13;;;;;;;10.03;5.13;;;;;;;;;;5050541;28;20554;-63
2022/09/06 03:39:40;;;;;;;7.47;4.17;;;;;;;;;;5032879;28;20223;-61
2022/09/06 03:42:07;;;;;;;7.03;3.87;;;;;;;;;;5050833;28;20186;-62
2022/09/06 03:44:34;;;;;;;8.33;4.60;;;;;;;;;;5050736;28;20191;-62
2022/09/06 03:47:00;;;;;;;7.43;4.77;;;;;;;;;;5050968;28;20194;-62
2022/09/06 03:49:27;;;;;;;8.10;4.70;;;;;;;;;;5050390;28;20265;-61
2022/09/06 03:51:54;;;;;;;8.93;4.90;;;;;;;;;;5032352;28;20183;-62
2022/09/06 03:54:20;;;;;;;9.43;5.27;;;;;;;;;;5040595;28;20219;-62
2022/09/06 03:56:47;;;;;;;8.03;4.73;;;;;;;;;;5050295;28;20175;-60
2022/09/06 03:59:14;;;;;;;10.83;5.67;;;;;;;;;;5050480;28;20325;-60
2022/09/06 04:01:40;;;;;;;8.07;4.80;;;;;;;;;;5050635;28;20189;-61
2022/09/06 04:04:07;;;;;;;10.77;4.77;;;;;;;;;;5050166;28;20243;-60
2022/09/06 04:06:34;;;;;;;7.83;4.60;;;;;;;;;;5050305;28;20221;-61
2022/09/06 04:09:01;;;;;;;7.87;4.93;;;;;;;;;;5050297;28;20221;-60
2022/09/06 04:11:27;;;;;;;9.00;4.60;;;;;;;;;;5050250;28;20531;-60
2022/09/06 04:13:54;;;;;;;7.43;4.57;;;;;;;;;;5050303;28;21026;-61
2022/09/06 04:16:20;;;;;;;7.60;4.97;;;;;;;;;;5050706;28;20236;-61
2022/09/06 04:18:47;;;;;;;9.40;4.80;;;;;;;;;;5049686;28;20187;-60
2022/09/06 04:21:14;;;;;;;7.20;4.27;;;;;;;;;;5049618;28;20900;-61
2022/09/06 04:23:41;;;;;;;6.37;4.33;;;;;;;;;;5050134;28;20182;-61
2022/09/06 04:26:08;;;;;;;9.30;4.30;;;;;;;;;;5049728;28;20658;-61
2022/09/06 04:28:34;;;;;;;6.60;4.07;;;;;;;;;;5037119;28;20273;-62
2022/09/06 04:31:01;;;;;;;8.53;4.27;;;;;;;;;;5030717;28;20205;-62
2022/09/06 04:33:31;;;;;;;9.83;4.27;;;;;;;;;;5034816;28;20202;-63
2022/09/06 04:35:58;;;;;;;5.93;4.30;;;;;;;;;;5037837;28;20198;-62
2022/09/06 04:38:26;;;;;;;8.27;4.40;;;;;;;;;;5032737;28;20199;-64
2022/09/06 04:40:54;;;;;;;6.60;4.37;;;;;;;;;;5037687;28;20223;-63
2022/09/06 04:43:21;;;;;;;9.03;5.27;;;;;;;;;;5033245;28;20253;-62
2022/09/06 04:45:48;;;;;;;7.27;4.60;;;;;;;;;;5037217;28;20205;-63
2022/09/06 04:48:15;;;;;;;9.10;4.77;;;;;;;;;;5039565;28;20209;-63
2022/09/06 04:50:41;;;;;;;10.30;5.37;;;;;;;;;;5028378;28;20325;-63
2022/09/06 04:53:09;;;;;;;8.60;5.40;;;;;;;;;;5038877;28;20249;-61
2022/09/06 04:55:36;;;;;;;8.63;4.97;;;;;;;;;;5037058;28;20868;-60
2022/09/06 04:58:03;;;;;;;8.43;4.97;;;;;;;;;;5038902;28;20191;-63
2022/09/06 05:00:30;;;;;;;9.13;4.90;;;;;;;;;;5033324;28;20215;-62
2022/09/06 05:02:57;;;;;;;6.73;4.43;;;;;;;;;;5029513;28;20218;-62
2022/09/06 05:05:24;;;;;;;5.70;4.00;;;;;;;;;;5036403;28;20231;-60
2022/09/06 05:07:51;;;;;;;8.63;4.70;;;;;;;;;;5038015;28;20206;-62
2022/09/06 05:10:18;;;;;;;11.07;4.73;;;;;;;;;;5029471;28;20229;-62
2022/09/06 05:12:51;;;;;;;13.03;5.20;;;;;;;;;;5037781;28;20606;-62
2022/09/06 05:15:18;;;;;;;16.23;5.17;;;;;;;;;;5039667;28;20302;-60
2022/09/06 05:17:44;;;;;;;12.63;5.10;;;;;;;;;;5040229;28;20199;-62
2022/09/06 05:20:11;;;;;;;15.13;5.33;;;;;;;;;;5024268;28;20826;-63
2022/09/06 05:22:38;;;;;;;11.00;5.20;;;;;;;;;;5036989;28;20229;-62
2022/09/06 05:25:06;;;;;;;13.13;5.33;;;;;;;;;;5034031;28;20210;-64
2022/09/06 05:27:32;;;;;;;10.83;4.70;;;;;;;;;;5027853;28;20223;-63
2022/09/06 05:29:59;;;;;;;9.23;4.27;;;;;;;;;;5033939;28;20207;-63
2022/09/06 05:32:26;;;;;;;11.03;4.23;;;;;;;;;;5017349;28;20330;-63
2022/09/06 05:34:53;;;;;;;9.30;5.03;;;;;;;;;;5030610;28;20914;-62
2022/09/06 05:37:20;;;;;;;10.80;5.00;;;;;;;;;;5035859;28;20286;-63
2022/09/06 05:39:47;;;;;;;11.23;4.43;;;;;;;;;;5020604;28;20227;-62
2022/09/06 05:42:14;;;;;;;11.77;4.67;;;;;;;;;;5033972;28;20195;-61
2022/09/06 05:44:45;;;;;;;11.17;5.00;;;;;;;;;;5023072;28;20204;-65
2022/09/06 05:47:12;;;;;;;9.53;4.53;;;;;;;;;;5034606;28;20206;-63
2022/09/06 05:49:39;;;;;;;8.23;3.60;;;;;;;;;;5034305;28;20217;-62
2022/09/06 05:52:05;;;;;;;8.47;4.33;;;;;;;;;;5045289;28;20205;-62
2022/09/06 05:54:32;;;;;;;7.93;4.80;;;;;;;;;;5049023;28;20249;-61
2022/09/06 05:56:59;;;;;;;12.53;4.50;;;;;;;;;;5048654;28;20186;-62
2022/09/06 05:59:26;;;;;;;5.73;3.57;;;;;;;;;;5048748;28;20226;-62
2022/09/06 06:01:52;;;;;;;7.63;3.73;;;;;;;;;;5048594;28;20217;-59
2022/09/06 06:04:19;;;;;;;8.57;3.40;;;;;;;;;;5048364;28;20203;-60
2022/09/06 06:06:47;;;;;;;10.13;3.90;;;;;;;;;;5043687;28;20195;-67
2022/09/06 06:09:14;;;;;;;6.27;2.73;;;;;;;;;;5039620;28;20195;-62
2022/09/06 06:11:41;;;;;;;5.40;2.80;;;;;;;;;;5035355;28;20269;-62
2022/09/06 06:14:08;;;;;;;6.13;3.17;;;;;;;;;;5030224;28;20657;-63
2022/09/06 06:16:35;;;;;;;4.63;2.30;;;;;;;;;;5033084;28;20236;-65
2022/09/06 06:19:02;;;;;;;5.10;2.93;;;;;;;;;;5030636;28;20960;-62
2022/09/06 06:21:29;;;;;;;3.73;2.13;;;;;;;;;;5036967;28;20302;-61
2022/09/06 06:23:57;;;;;;;3.87;2.17;;;;;;;;;;5030127;28;20245;-62
2022/09/06 06:26:24;;;;;;;2.73;1.70;;;;;;;;;;5031919;28;20539;-61
2022/09/06 06:28:52;;;;;;;2.73;1.23;;;;;;;;;;5028412;28;20236;-62
2022/09/06 06:31:21;;;;;;;4.07;0.90;;;;;;;;;;5033539;28;20279;-62
2022/09/06 06:33:48;;;;;;;2.67;1.17;;;;;;;;;;5039017;28;20197;-61
2022/09/06 06:36:15;;;;;;;1.37;0.93;;;;;;;;;;5031813;28;20319;-64
2022/09/06 06:38:42;;;;;;;2.17;1.00;;;;;;;;;;5026599;28;20226;-63
2022/09/06 06:41:10;;;;;;;3.10;1.00;;;;;;;;;;5012410;28;20222;-62
2022/09/06 06:43:37;;;;;;;1.83;1.00;;;;;;;;;;5032080;28;20785;-65
2022/09/06 06:46:07;;;;;;;4.47;1.00;;;;;;;;;;5032923;28;20532;-62
2022/09/06 06:48:34;;;;;;;1.70;0.70;;;;;;;;;;5030954;28;20191;-62
2022/09/06 06:51:01;;;;;;;2.40;0.90;;;;;;;;;;5035834;28;20183;-63
2022/09/06 06:53:28;;;;;;;2.23;0.80;;;;;;;;;;5029198;28;20199;-64
2022/09/06 06:55:55;;;;;;;1.50;0.80;;;;;;;;;;5035655;28;20191;-61
2022/09/06 06:58:22;;;;;;;1.17;0.60;;;;;;;;;;5033780;28;20680;-65
2022/09/06 07:00:49;;;;;;;2.07;0.90;;;;;;;;;;5042831;28;20269;-62
2022/09/06 07:03:17;;;;;;;1.50;0.80;;;;;;;;;;5039566;28;20200;-64
2022/09/06 07:05:45;;;;;;;3.07;0.63;;;;;;;;;;5035428;28;20233;-65
2022/09/06 07:08:33;;;;;;;1.47;0.93;;;;;;;;;;5027242;28;20188;-65
2022/09/06 07:11:00;;;;;;;2.40;0.70;;;;;;;;;;5037424;28;20191;-68
2022/09/06 07:13:27;;;;;;;0.80;0.53;;;;;;;;;;5033924;28;20563;-64
2022/09/06 07:16:06;;;;;;;3.03;0.60;;;;;;;;;;5043771;28;20206;-65
2022/09/06 07:18:33;;;;;;;1.70;0.70;;;;;;;;;;5029882;28;20289;-64
2022/09/06 07:21:00;;;;;;;1.37;0.50;;;;;;;;;;5043290;28;20205;-64
2022/09/06 07:23:47;;;;;;;1.87;0.50;;;;;;;;;;5029824;28;20183;-64
2022/09/06 07:26:34;;;;;;;0.60;0.60;;;;;;;;;;5043222;28;20224;-65
2022/09/06 07:29:02;;;;;;;1.80;0.40;;;;;;;;;;5030075;28;20201;-63
2022/09/06 07:31:30;;;;;;;3.77;0.57;;;;;;;;;;5025987;28;20203;-63
2022/09/06 07:34:18;;;;;;;3.23;0.60;;;;;;;;;;5037320;28;20190;-66
2022/09/06 07:36:44;;;;;;;1.17;0.40;;;;;;;;;;5041884;28;20315;-65
2022/09/06 07:39:11;;;;;;;1.30;0.50;;;;;;;;;;5029759;28;20204;-63
2022/09/06 07:41:38;;;;;;;1.03;0.57;;;;;;;;;;5041574;28;20298;-65
2022/09/06 07:44:05;;;;;;;3.07;0.90;;;;;;;;;;5027161;28;20203;-65
2022/09/06 07:46:31;;;;;;;1.33;0.63;;;;;;;;;;5039003;28;20195;-65
2022/09/06 07:48:58;;;;;;;1.00;0.53;;;;;;;;;;5029565;28;20852;-64
2022/09/06 07:51:25;;;;;;;0.83;0.50;;;;;;;;;;5040788;28;20194;-64
2022/09/06 07:53:54;;;;;;;0.90;0.70;;;;;;;;;;5034459;28;20250;-64
2022/09/06 07:56:41;;;;;;;0.93;0.70;;;;;;;;;;5039102;28;20544;-64
2022/09/06 07:59:08;;;;;;;2.77;0.57;;;;;;;;;;5005800;28;20199;-65
2022/09/06 08:01:35;;;;;;;0.97;0.40;;;;;;;;;;5039106;28;20207;-64
2022/09/06 08:04:06;;;;;;;0.70;0.60;;;;;;;;;;5034052;28;20187;-64
2022/09/06 08:06:36;;;;;;;1.67;0.60;;;;;;;;;;5033128;28;20249;-64
2022/09/06 08:09:23;;;;;;;1.53;0.60;;;;;;;;;;5028802;28;20579;-65
2022/09/06 08:11:51;;;;;;;1.53;0.70;;;;;;;;;;5014981;28;20192;-64
2022/09/06 08:14:19;;;;;;;1.83;0.60;;;;;;;;;;5028021;28;20203;-65
2022/09/06 08:16:46;;;;;;;1.03;0.50;;;;;;;;;;5039401;28;20298;-66
2022/09/06 08:19:14;;;;;;;2.00;0.50;;;;;;;;;;5039612;28;20199;-63
2022/09/06 08:21:41;;;;;;;1.33;0.60;;;;;;;;;;5041107;28;20770;-63
2022/09/06 08:24:11;;;;;;;2.27;0.60;;;;;;;;;;5032830;28;20221;-63
2022/09/06 08:26:39;;;;;;;0.70;0.43;;;;;;;;;;5040891;28;20191;-63
2022/09/06 08:29:07;;;;;;;2.33;0.87;;;;;;;;;;5032661;28;20209;-63
2022/09/06 08:31:35;;;;;;;2.57;0.60;;;;;;;;;;5022024;28;20190;-62
2022/09/06 08:34:02;;;;;;;1.27;0.63;;;;;;;;;;5030105;28;20211;-64
2022/09/06 08:36:29;;;;;;;2.33;0.50;;;;;;;;;;5027163;28;20247;-62
2022/09/06 08:38:59;;;;;;;2.73;0.70;;;;;;;;;;5030994;28;20365;-62
2022/09/06 08:41:26;;;;;;;1.43;0.70;;;;;;;;;;5040887;28;20209;-62
2022/09/06 08:43:56;;;;;;;2.50;0.70;;;;;;;;;;5040241;28;20197;-62
2022/09/06 08:46:52;;;;;;;2.23;0.80;;;;;;;;;;5040051;28;20197;-62
2022/09/06 08:49:19;;;;;;;2.30;0.60;;;;;;;;;;5022984;28;20984;-62
2022/09/06 08:51:50;;;;;;;1.07;0.67;;;;;;;;;;5023532;28;20187;-62
2022/09/06 08:54:20;;;;;;;1.33;0.73;;;;;;;;;;5047149;28;20191;-61
2022/09/06 08:56:55;;;;;;;3.73;0.60;;;;;;;;;;5040187;28;20207;-66
2022/09/06 08:59:22;;;;;;;2.77;0.60;;;;;;;;;;5036217;28;20669;-63
2022/09/06 09:02:08;;;;;;;1.87;0.60;;;;;;;;;;5014766;28;20211;-64
2022/09/06 09:04:35;;;;;;;1.53;0.50;;;;;;;;;;5039125;28;20230;-63
2022/09/06 09:07:21;;;;;;;2.67;0.53;;;;;;;;;;5034130;28;20198;-61
2022/09/06 09:09:49;;;;;;;2.83;0.70;;;;;;;;;;5032179;28;20415;-63
2022/09/06 09:12:19;;;;;;;1.50;0.50;;;;;;;;;;5027763;28;20183;-65
2022/09/06 09:14:47;;;;;;;2.00;0.67;;;;;;;;;;5021698;28;20227;-62
2022/09/06 09:17:21;;;;;;;3.43;0.60;;;;;;;;;;5035178;28;20197;-62
2022/09/06 09:19:48;;;;;;;1.37;0.50;;;;;;;;;;5022320;28;20317;-62
2022/09/06 09:22:16;;;;;;;1.03;0.50;;;;;;;;;;5027669;28;20215;-64
2022/09/06 09:24:43;;;;;;;1.20;0.60;;;;;;;;;;5018389;28;20240;-62
2022/09/06 09:27:11;;;;;;;0.73;0.50;;;;;;;;;;5035000;28;20781;-62
2022/09/06 09:29:53;;;;;;;3.07;0.50;;;;;;;;;;5020342;28;20199;-62
2022/09/06 09:32:43;;;;;;;2.33;0.50;;;;;;;;;;5029720;28;20190;-64
2022/09/06 09:35:14;;;;;;;1.80;0.70;;;;;;;;;;5035626;28;20246;-62
2022/09/06 09:37:41;;;;;;;2.17;0.50;;;;;;;;;;5021511;28;20194;-65
2022/09/06 09:40:14;;;;;;;4.07;0.90;;;;;;;;;;5022918;28;20293;-62
2022/09/06 09:42:40;;;;;;;1.20;0.40;;;;;;;;;;5038933;28;20237;-62
2022/09/06 09:45:20;;;;;;;0.50;0.50;;;;;;;;;;5020685;28;20195;-63
2022/09/06 09:47:47;;;;;;;1.03;0.60;;;;;;;;;;5033345;28;20201;-61
2022/09/06 09:50:26;;;;;;;0.73;0.50;;;;;;;;;;5019619;28;20184;-62
2022/09/06 09:52:53;;;;;;;1.53;0.53;;;;;;;;;;5038846;28;20810;-62
2022/09/06 09:55:23;;;;;;;1.17;0.67;;;;;;;;;;5019558;28;20199;-62
2022/09/06 09:57:52;;;;;;;3.17;0.67;;;;;;;;;;5018806;28;20196;-63
2022/09/06 10:00:35;;;;;;;1.03;0.60;;;;;;;;;;5041104;28;20201;-62
2022/09/06 10:03:15;;;;;;;0.60;0.50;;;;;;;;;;5036164;28;20242;-60
2022/09/06 10:05:42;;;;;;;1.20;0.57;;;;;;;;;;5005109;28;20314;-61
2022/09/06 10:08:10;;;;;;;1.63;0.50;;;;;;;;;;4994640;28;20197;-62
2022/09/06 10:10:41;;;;;;;1.50;0.40;;;;;;;;;;5015945;28;20195;-63
2022/09/06 10:13:16;;;;;;;1.93;0.50;;;;;;;;;;5012350;28;20574;-63
2022/09/06 10:15:43;;;;;;;2.53;0.57;;;;;;;;;;5000256;28;20760;-61
2022/09/06 10:18:19;;;;;;;1.90;0.60;;;;;;;;;;5029139;28;20191;-62
2022/09/06 10:20:51;;;;;;;1.57;0.67;;;;;;;;;;5021575;28;20187;-62
2022/09/06 10:23:37;;;;;;;4.00;0.70;;;;;;;;;;5029061;28;20788;-61
2022/09/06 10:26:42;;;;;;;2.00;0.50;;;;;;;;;;5029803;28;20273;-61
2022/09/06 10:29:09;;;;;;;1.83;0.50;;;;;;;;;;5022000;28;20187;-62
2022/09/06 10:31:38;;;;;;;0.70;0.40;;;;;;;;;;5030026;28;20283;-63
2022/09/06 10:34:12;;;;;;;1.80;0.50;;;;;;;;;;5030423;28;20237;-62
2022/09/06 10:36:39;;;;;;;3.53;0.50;;;;;;;;;;5014016;28;20443;-62
2022/09/06 10:39:22;;;;;;;1.10;0.50;;;;;;;;;;4995013;28;20278;-61
2022/09/06 10:41:56;;;;;;;1.00;0.40;;;;;;;;;;4992303;28;20728;-61
2022/09/06 10:44:36;;;;;;;1.33;0.40;;;;;;;;;;5001808;28;20206;-61
2022/09/06 10:47:07;;;;;;;4.33;0.80;;;;;;;;;;5021863;28;20215;-63
2022/09/06 10:49:34;;;;;;;1.40;0.43;;;;;;;;;;5006820;28;20211;-63
2022/09/06 10:52:02;;;;;;;1.20;0.60;;;;;;;;;;4999387;28;20322;-63
2022/09/06 10:54:29;;;;;;;4.80;0.70;;;;;;;;;;5020539;28;20237;-63
2022/09/06 10:57:03;;;;;;;1.73;0.50;;;;;;;;;;5012355;28;20397;-63
2022/09/06 10:59:34;;;;;;;1.53;0.43;;;;;;;;;;5026349;28;20234;-63
2022/09/06 11:02:09;;;;;;;2.57;0.67;;;;;;;;;;5032105;28;20353;-63
2022/09/06 11:04:38;;;;;;;1.90;0.50;;;;;;;;;;5035608;28;20219;-62
2022/09/06 11:07:33;;;;;;;1.53;0.50;;;;;;;;;;5029585;28;20196;-62
2022/09/06 11:10:09;;;;;;;2.67;0.57;;;;;;;;;;5038416;28;20191;-63
2022/09/06 11:12:36;;;;;;;1.30;0.57;;;;;;;;;;5048138;28;20240;-62
2022/09/06 11:15:03;;;;;;;1.27;0.50;;;;;;;;;;5048770;28;20227;-65
2022/09/06 11:17:37;;;;;;;0.97;0.60;;;;;;;;;;5034032;28;20198;-63
2022/09/06 11:20:07;;;;;;;1.83;0.70;;;;;;;;;;5034636;28;20213;-64
2022/09/06 11:22:52;;;;;;;1.23;0.40;;;;;;;;;;5050344;28;20249;-63
2022/09/06 11:25:38;;;;;;;1.47;0.50;;;;;;;;;;5050234;28;20191;-62
2022/09/06 11:28:06;;;;;;;2.40;0.43;;;;;;;;;;5044355;28;20187;-63
2022/09/06 11:30:33;;;;;;;1.57;0.50;;;;;;;;;;5050251;28;20211;-64
2022/09/06 11:33:12;;;;;;;0.90;0.50;;;;;;;;;;5033800;28;20205;-62
2022/09/06 11:35:39;;;;;;;1.37;0.60;;;;;;;;;;5020907;28;20652;-63
2022/09/06 11:38:15;;;;;;;0.60;0.40;;;;;;;;;;5045302;28;20189;-64
2022/09/06 11:40:43;;;;;;;1.03;0.40;;;;;;;;;;5017026;28;20258;-62
2022/09/06 11:43:16;;;;;;;1.30;0.60;;;;;;;;;;5043975;28;20801;-62
2022/09/06 11:45:47;;;;;;;0.53;0.40;;;;;;;;;;5036976;28;20206;-63
2022/09/06 11:48:23;;;;;;;1.90;0.50;;;;;;;;;;5045323;28;20191;-64
2022/09/06 11:50:53;;;;;;;0.80;0.30;;;;;;;;;;5037240;28;20198;-63
2022/09/06 11:53:20;;;;;;;0.43;0.40;;;;;;;;;;5050100;28;20199;-62
2022/09/06 11:56:10;;;;;;;0.40;0.37;;;;;;;;;;5051089;28;20183;-63
2022/09/06 11:58:40;;;;;;;0.83;0.40;;;;;;;;;;5021455;28;20286;-63
2022/09/06 12:01:10;;;;;;;1.23;0.40;;;;;;;;;;5046249;28;20199;-62
2022/09/06 12:03:52;;;;;;;0.47;0.37;;;;;;;;;;5039713;28;20210;-63
2022/09/06 12:06:40;;;;;;;0.50;0.40;;;;;;;;;;5043086;28;20752;-65
2022/09/06 12:09:45;;;;;;;0.80;0.40;;;;;;;;;;5035893;28;20279;-63
2022/09/06 12:12:12;;;;;;;0.43;0.33;;;;;;;;;;4999808;28;20206;-64
2022/09/06 12:14:45;;;;;;;1.00;0.50;;;;;;;;;;4996999;28;20211;-63
2022/09/06 12:17:12;;;;;;;0.50;0.40;;;;;;;;;;5015583;28;20653;-66
2022/09/06 12:19:51;;;;;;;0.87;0.40;;;;;;;;;;5036085;28;20203;-63
2022/09/06 12:22:39;;;;;;;1.13;0.60;;;;;;;;;;5018622;28;20289;-64
2022/09/06 12:25:18;;;;;;;0.43;0.33;;;;;;;;;;5037568;28;20187;-63
2022/09/06 12:27:51;;;;;;;0.73;0.40;;;;;;;;;;5039081;28;20216;-68
2022/09/06 12:30:40;;;;;;;1.10;0.60;;;;;;;;;;5041783;28;20191;-63
2022/09/06 12:33:16;;;;;;;1.73;0.40;;;;;;;;;;5037799;28;20370;-64
2022/09/06 12:35:43;;;;;;;0.87;0.40;;;;;;;;;;5023966;28;20197;-65
2022/09/06 12:38:29;;;;;;;1.53;0.60;;;;;;;;;;5036358;28;20269;-63
2022/09/06 12:40:57;;;;;;;2.80;0.60;;;;;;;;;;5037011;28;20199;-68
2022/09/06 12:43:25;;;;;;;5.93;1.03;;;;;;;;;;5031757;28;20265;-65
2022/09/06 12:45:52;;;;;;;0.70;0.40;;;;;;;;;;5032931;28;20686;-64
2022/09/06 12:48:28;;;;;;;0.53;0.37;;;;;;;;;;5023756;28;20183;-63
2022/09/06 12:50:59;;;;;;;0.90;0.50;;;;;;;;;;5036947;28;20281;-63
2022/09/06 12:53:27;;;;;;;2.67;0.40;;;;;;;;;;5039739;28;20604;-64
2022/09/06 12:56:07;;;;;;;1.13;0.30;;;;;;;;;;5039806;28;20202;-68
2022/09/06 12:58:34;;;;;;;0.40;0.40;;;;;;;;;;5025059;28;20186;-65
2022/09/06 13:01:31;;;;;;;1.30;0.20;;;;;;;;;;5022554;28;20209;-63
2022/09/06 13:04:01;;;;;;;0.50;0.40;;;;;;;;;;5011149;28;20231;-64
2022/09/06 13:06:28;;;;;;;1.43;0.30;;;;;;;;;;5022415;28;20229;-64
2022/09/06 13:08:55;;;;;;;0.53;0.40;;;;;;;;;;5011535;28;20233;-59
2022/09/06 13:11:45;;;;;;;1.67;0.30;;;;;;;;;;5039674;28;20195;-61
2022/09/06 13:14:15;;;;;;;1.17;0.30;;;;;;;;;;5018064;28;20199;-61
2022/09/06 13:16:43;;;;;;;0.40;0.30;;;;;;;;;;5022053;28;20198;-62
2022/09/06 13:19:11;;;;;;;0.70;0.30;;;;;;;;;;5044020;28;20198;-61
2022/09/06 13:21:38;;;;;;;0.80;0.40;;;;;;;;;;5049104;28;20538;-61
2022/09/06 13:24:17;;;;;;;0.23;0.23;;;;;;;;;;5049004;28;20305;-61
2022/09/06 13:26:44;;;;;;;0.97;0.60;;;;;;;;;;5048173;28;20190;-61
2022/09/06 13:29:17;;;;;;;0.40;0.30;;;;;;;;;;5048818;28;20270;-61
2022/09/06 13:31:47;;;;;;;0.40;0.30;;;;;;;;;;5048656;28;20581;-61
2022/09/06 13:34:24;;;;;;;1.23;0.47;;;;;;;;;;5031261;28;20194;-60
2022/09/06 13:36:51;;;;;;;0.83;0.37;;;;;;;;;;5047705;28;20653;-61
2022/09/06 13:39:34;;;;;;;1.90;0.50;;;;;;;;;;5040197;28;20646;-61
2022/09/06 13:42:11;;;;;;;2.73;0.50;;;;;;;;;;5048889;28;20650;-60
2022/09/06 13:44:38;;;;;;;1.57;0.30;;;;;;;;;;5048820;28;20202;-61
2022/09/06 13:47:04;;;;;;;0.37;0.37;;;;;;;;;;5048079;28;20191;-60
2022/09/06 13:49:31;;;;;;;0.73;0.40;;;;;;;;;;5048944;28;20187;-61
2022/09/06 13:52:01;;;;;;;0.70;0.50;;;;;;;;;;5050423;28;20654;-61
2022/09/06 13:54:29;;;;;;;2.83;0.53;;;;;;;;;;5035391;28;20320;-61
2022/09/06 13:56:55;;;;;;;3.13;0.60;;;;;;;;;;5052787;28;20538;-60
2022/09/06 13:59:23;;;;;;;2.30;0.90;;;;;;;;;;5052794;28;20195;-61
2022/09/06 14:02:00;;;;;;;7.83;0.97;;;;;;;;;;5052826;28;20623;-61
2022/09/06 14:04:27;;;;;;;1.43;0.40;;;;;;;;;;5052202;28;20194;-61
2022/09/06 14:06:54;;;;;;;0.57;0.40;;;;;;;;;;5035081;28;20193;-61
2022/09/06 14:09:21;;;;;;;2.00;0.40;;;;;;;;;;5052617;28;20199;-61
2022/09/06 14:14:57;;;;;;;0.90;0.40;;;;;;;;;;5038776;28;20237;-62
2022/09/06 14:17:24;;;;;;;0.60;0.40;;;;;;;;;;5046726;28;20194;-61
2022/09/06 14:19:50;;;;;;;1.53;0.40;;;;;;;;;;5042791;28;20227;-61
2022/09/06 14:22:20;;;;;;;0.30;0.30;;;;;;;;;;5044589;28;20207;-62
2022/09/06 14:24:47;;;;;;;0.30;0.30;;;;;;;;;;5032714;28;20266;-60
2022/09/06 14:27:14;;;;;;;1.60;0.43;;;;;;;;;;5042870;28;20975;-61
2022/09/06 14:29:41;;;;;;;0.37;0.37;;;;;;;;;;5027541;28;20197;-62
2022/09/06 14:32:08;;;;;;;1.53;0.50;;;;;;;;;;5044875;28;20201;-62
2022/09/06 14:34:35;;;;;;;0.70;0.47;;;;;;;;;;5040893;28;20555;-61
2022/09/06 14:37:02;;;;;;;0.77;0.50;;;;;;;;;;5043966;28;20230;-61
2022/09/06 14:39:29;;;;;;;0.67;0.30;;;;;;;;;;5035207;28;20686;-61
2022/09/06 14:41:56;;;;;;;0.50;0.40;;;;;;;;;;5042762;28;20257;-62
2022/09/06 14:44:22;;;;;;;0.60;0.50;;;;;;;;;;5037702;28;20214;-61
2022/09/06 14:46:52;;;;;;;0.33;0.33;;;;;;;;;;5032632;28;20218;-62
2022/09/06 14:49:19;;;;;;;0.67;0.40;;;;;;;;;;5040695;28;20197;-61
2022/09/06 14:51:46;;;;;;;0.30;0.30;;;;;;;;;;5047648;28;20190;-60
2022/09/06 14:54:14;;;;;;;0.70;0.40;;;;;;;;;;5051310;28;20620;-64
2022/09/06 14:56:42;;;;;;;0.40;0.40;;;;;;;;;;5051289;28;20195;-61
2022/09/06 14:59:09;;;;;;;0.40;0.30;;;;;;;;;;5051578;28;20512;-61
2022/09/06 15:01:37;;;;;;;0.30;0.30;;;;;;;;;;5051242;28;20245;-61
2022/09/06 15:04:05;;;;;;;0.77;0.40;;;;;;;;;;5050647;28;20222;-61